sensor_id;sensor_type;location;lat;lon;timestamp;temperature;humidity
28244;DHT22;15510;52.512;13.300;2023-04-19T00:01:25;7.50;99.90
28244;DHT22;15510;52.512;13.300;2023-04-19T00:03:54;7.60;99.90
28244;DHT22;15510;52.512;13.300;2023-04-19T00:06:21;7.60;99.90
28244;DHT22;15510;52.512;13.300;2023-04-19T00:08:47;7.60;99.90
28244;DHT22;15510;52.512;13.300;2023-04-19T00:11:13;7.60;99.90
28244;DHT22;15510;52.512;13.300;2023-04-19T00:13:38;7.60;99.90
28244;DHT22;15510;52.512;13.300;2023-04-19T00:16:04;7.70;99.90
28244;DHT22;15510;52.512;13.300;2023-04-19T00:18:30;7.70;99.90
28244;DHT22;15510;52.512;13.300;2023-04-19T00:20:56;7.90;99.90
28244;DHT22;15510;52.512;13.300;2023-04-19T00:23:22;8.00;99.90
28244;DHT22;15510;52.512;13.300;2023-04-19T00:25:50;8.00;99.90
28244;DHT22;15510;52.512;13.300;2023-04-19T00:28:15;8.00;99.90
28244;DHT22;15510;52.512;13.300;2023-04-19T00:30:41;8.00;99.90
28244;DHT22;15510;52.512;13.300;2023-04-19T00:33:09;8.00;99.90
28244;DHT22;15510;52.512;13.300;2023-04-19T00:35:40;8.00;99.90
28244;DHT22;15510;52.512;13.300;2023-04-19T00:38:09;8.00;99.90
28244;DHT22;15510;52.512;13.300;2023-04-19T00:40:36;8.00;99.90
28244;DHT22;15510;52.512;13.300;2023-04-19T00:43:03;8.00;99.90
28244;DHT22;15510;52.512;13.300;2023-04-19T00:45:31;7.90;99.90
28244;DHT22;15510;52.512;13.300;2023-04-19T00:48:00;7.80;99.90
28244;DHT22;15510;52.512;13.300;2023-04-19T00:50:26;7.80;99.90
28244;DHT22;15510;52.512;13.300;2023-04-19T00:52:53;7.70;99.90
28244;DHT22;15510;52.512;13.300;2023-04-19T00:55:24;7.80;99.90
28244;DHT22;15510;52.512;13.300;2023-04-19T00:57:56;7.70;99.90
28244;DHT22;15510;52.512;13.300;2023-04-19T01:00:22;7.70;99.90
28244;DHT22;15510;52.512;13.300;2023-04-19T01:02:49;7.70;99.90
28244;DHT22;15510;52.512;13.300;2023-04-19T01:05:17;7.70;99.90
28244;DHT22;15510;52.512;13.300;2023-04-19T01:07:44;7.70;99.90
28244;DHT22;15510;52.512;13.300;2023-04-19T01:10:13;7.60;99.90
28244;DHT22;15510;52.512;13.300;2023-04-19T01:12:40;7.70;99.90
28244;DHT22;15510;52.512;13.300;2023-04-19T01:15:06;7.70;99.90
28244;DHT22;15510;52.512;13.300;2023-04-19T01:17:33;7.70;99.90
28244;DHT22;15510;52.512;13.300;2023-04-19T01:20:00;7.60;99.90
28244;DHT22;15510;52.512;13.300;2023-04-19T01:22:26;7.50;99.90
28244;DHT22;15510;52.512;13.300;2023-04-19T01:24:53;7.60;99.90
28244;DHT22;15510;52.512;13.300;2023-04-19T01:27:18;7.50;99.90
28244;DHT22;15510;52.512;13.300;2023-04-19T01:29:45;7.50;99.90
28244;DHT22;15510;52.512;13.300;2023-04-19T01:32:11;7.50;99.90
28244;DHT22;15510;52.512;13.300;2023-04-19T01:34:42;7.40;99.90
28244;DHT22;15510;52.512;13.300;2023-04-19T01:37:08;7.40;99.90
28244;DHT22;15510;52.512;13.300;2023-04-19T01:39:33;7.30;99.90
28244;DHT22;15510;52.512;13.300;2023-04-19T01:42:02;7.30;99.90
28244;DHT22;15510;52.512;13.300;2023-04-19T01:44:31;7.20;99.90
28244;DHT22;15510;52.512;13.300;2023-04-19T01:46:58;7.20;99.90
28244;DHT22;15510;52.512;13.300;2023-04-19T01:49:24;7.20;99.90
28244;DHT22;15510;52.512;13.300;2023-04-19T01:51:50;7.10;99.90
28244;DHT22;15510;52.512;13.300;2023-04-19T01:54:19;7.10;99.90
28244;DHT22;15510;52.512;13.300;2023-04-19T01:56:48;7.00;99.90
28244;DHT22;15510;52.512;13.300;2023-04-19T01:59:14;7.00;99.90
28244;DHT22;15510;52.512;13.300;2023-04-19T02:01:42;7.00;99.90
28244;DHT22;15510;52.512;13.300;2023-04-19T02:04:08;7.00;99.90
28244;DHT22;15510;52.512;13.300;2023-04-19T02:06:34;7.00;99.90
28244;DHT22;15510;52.512;13.300;2023-04-19T02:09:03;7.00;99.90
28244;DHT22;15510;52.512;13.300;2023-04-19T02:11:29;6.90;99.90
28244;DHT22;15510;52.512;13.300;2023-04-19T02:13:58;6.90;99.90
28244;DHT22;15510;52.512;13.300;2023-04-19T02:16:27;6.80;99.90
28244;DHT22;15510;52.512;13.300;2023-04-19T02:18:53;6.70;99.90
28244;DHT22;15510;52.512;13.300;2023-04-19T02:21:19;6.70;99.90
28244;DHT22;15510;52.512;13.300;2023-04-19T02:23:46;6.70;99.90
28244;DHT22;15510;52.512;13.300;2023-04-19T02:26:12;6.70;99.90
28244;DHT22;15510;52.512;13.300;2023-04-19T02:28:42;6.70;99.90
28244;DHT22;15510;52.512;13.300;2023-04-19T02:31:08;6.60;99.90
28244;DHT22;15510;52.512;13.300;2023-04-19T02:33:34;6.60;99.90
28244;DHT22;15510;52.512;13.300;2023-04-19T02:36:02;6.60;99.90
28244;DHT22;15510;52.512;13.300;2023-04-19T02:38:28;6.60;99.90
28244;DHT22;15510;52.512;13.300;2023-04-19T02:40:54;6.60;99.90
28244;DHT22;15510;52.512;13.300;2023-04-19T02:43:20;6.50;99.90
28244;DHT22;15510;52.512;13.300;2023-04-19T02:45:46;6.50;99.90
28244;DHT22;15510;52.512;13.300;2023-04-19T02:48:12;6.40;99.90
28244;DHT22;15510;52.512;13.300;2023-04-19T02:50:38;6.40;99.90
28244;DHT22;15510;52.512;13.300;2023-04-19T02:53:06;6.30;99.90
28244;DHT22;15510;52.512;13.300;2023-04-19T02:55:33;6.30;99.90
28244;DHT22;15510;52.512;13.300;2023-04-19T02:58:11;6.30;99.90
28244;DHT22;15510;52.512;13.300;2023-04-19T03:00:44;6.20;99.90
28244;DHT22;15510;52.512;13.300;2023-04-19T03:03:15;6.20;99.90
28244;DHT22;15510;52.512;13.300;2023-04-19T03:05:44;6.30;99.90
28244;DHT22;15510;52.512;13.300;2023-04-19T03:08:10;6.30;99.90
28244;DHT22;15510;52.512;13.300;2023-04-19T03:10:36;6.20;99.90
28244;DHT22;15510;52.512;13.300;2023-04-19T03:13:02;6.20;99.90
28244;DHT22;15510;52.512;13.300;2023-04-19T03:15:30;6.10;99.90
28244;DHT22;15510;52.512;13.300;2023-04-19T03:17:56;6.10;99.90
28244;DHT22;15510;52.512;13.300;2023-04-19T03:20:22;6.10;99.90
28244;DHT22;15510;52.512;13.300;2023-04-19T03:22:48;6.10;99.90
28244;DHT22;15510;52.512;13.300;2023-04-19T03:25:14;6.10;99.90
28244;DHT22;15510;52.512;13.300;2023-04-19T03:27:43;6.10;99.90
28244;DHT22;15510;52.512;13.300;2023-04-19T03:30:12;6.00;99.90
28244;DHT22;15510;52.512;13.300;2023-04-19T03:32:38;6.00;99.90
28244;DHT22;15510;52.512;13.300;2023-04-19T03:35:06;5.90;99.90
28244;DHT22;15510;52.512;13.300;2023-04-19T03:37:33;5.90;99.90
28244;DHT22;15510;52.512;13.300;2023-04-19T03:39:59;5.80;99.90
28244;DHT22;15510;52.512;13.300;2023-04-19T03:42:31;5.80;99.90
28244;DHT22;15510;52.512;13.300;2023-04-19T03:45:11;5.80;99.90
28244;DHT22;15510;52.512;13.300;2023-04-19T03:47:45;5.70;99.90
28244;DHT22;15510;52.512;13.300;2023-04-19T03:50:11;5.70;99.90
28244;DHT22;15510;52.512;13.300;2023-04-19T03:52:40;5.70;99.90
28244;DHT22;15510;52.512;13.300;2023-04-19T03:55:09;5.60;99.90
28244;DHT22;15510;52.512;13.300;2023-04-19T03:57:39;5.60;99.90
28244;DHT22;15510;52.512;13.300;2023-04-19T04:00:16;5.50;99.90
28244;DHT22;15510;52.512;13.300;2023-04-19T04:02:41;5.50;99.90
28244;DHT22;15510;52.512;13.300;2023-04-19T04:05:10;5.60;99.90
28244;DHT22;15510;52.512;13.300;2023-04-19T04:07:36;5.60;99.90
28244;DHT22;15510;52.512;13.300;2023-04-19T04:10:03;5.60;99.90
28244;DHT22;15510;52.512;13.300;2023-04-19T04:12:36;5.60;99.90
28244;DHT22;15510;52.512;13.300;2023-04-19T04:15:05;5.60;99.90
28244;DHT22;15510;52.512;13.300;2023-04-19T04:17:34;5.60;99.90
28244;DHT22;15510;52.512;13.300;2023-04-19T04:20:02;5.60;99.90
28244;DHT22;15510;52.512;13.300;2023-04-19T04:22:30;5.70;99.90
28244;DHT22;15510;52.512;13.300;2023-04-19T04:24:57;5.60;99.90
28244;DHT22;15510;52.512;13.300;2023-04-19T04:27:32;5.70;99.90
28244;DHT22;15510;52.512;13.300;2023-04-19T04:29:59;5.60;99.90
28244;DHT22;15510;52.512;13.300;2023-04-19T04:32:27;5.70;99.90
28244;DHT22;15510;52.512;13.300;2023-04-19T04:34:58;5.70;99.90
28244;DHT22;15510;52.512;13.300;2023-04-19T04:37:36;5.60;99.90
28244;DHT22;15510;52.512;13.300;2023-04-19T04:40:03;5.60;99.90
28244;DHT22;15510;52.512;13.300;2023-04-19T04:42:31;5.60;99.90
28244;DHT22;15510;52.512;13.300;2023-04-19T04:44:57;5.60;99.90
28244;DHT22;15510;52.512;13.300;2023-04-19T04:47:32;5.60;99.90
28244;DHT22;15510;52.512;13.300;2023-04-19T04:50:01;5.60;99.90
28244;DHT22;15510;52.512;13.300;2023-04-19T04:52:28;5.70;99.90
28244;DHT22;15510;52.512;13.300;2023-04-19T04:55:20;5.70;99.90
28244;DHT22;15510;52.512;13.300;2023-04-19T04:57:47;5.70;99.90
28244;DHT22;15510;52.512;13.300;2023-04-19T05:00:22;5.70;99.90
28244;DHT22;15510;52.512;13.300;2023-04-19T05:03:01;5.70;99.90
28244;DHT22;15510;52.512;13.300;2023-04-19T05:05:37;5.70;99.90
28244;DHT22;15510;52.512;13.300;2023-04-19T05:08:03;5.80;99.90
28244;DHT22;15510;52.512;13.300;2023-04-19T05:10:29;5.80;99.90
28244;DHT22;15510;52.512;13.300;2023-04-19T05:12:55;5.80;99.90
28244;DHT22;15510;52.512;13.300;2023-04-19T05:15:21;5.90;99.90
28244;DHT22;15510;52.512;13.300;2023-04-19T05:17:53;5.90;99.90
28244;DHT22;15510;52.512;13.300;2023-04-19T05:20:20;5.90;99.90
28244;DHT22;15510;52.512;13.300;2023-04-19T05:22:50;6.00;99.90
28244;DHT22;15510;52.512;13.300;2023-04-19T05:25:15;6.00;99.90
28244;DHT22;15510;52.512;13.300;2023-04-19T05:27:42;6.00;99.90
28244;DHT22;15510;52.512;13.300;2023-04-19T05:30:08;6.10;99.90
28244;DHT22;15510;52.512;13.300;2023-04-19T05:32:39;6.20;99.90
28244;DHT22;15510;52.512;13.300;2023-04-19T05:35:08;6.20;99.90
28244;DHT22;15510;52.512;13.300;2023-04-19T05:37:34;6.20;99.90
28244;DHT22;15510;52.512;13.300;2023-04-19T05:40:02;6.30;99.90
28244;DHT22;15510;52.512;13.300;2023-04-19T05:42:30;6.30;99.90
28244;DHT22;15510;52.512;13.300;2023-04-19T05:44:58;6.40;99.90
28244;DHT22;15510;52.512;13.300;2023-04-19T05:47:24;6.40;99.90
28244;DHT22;15510;52.512;13.300;2023-04-19T05:50:13;6.50;99.90
28244;DHT22;15510;52.512;13.300;2023-04-19T05:52:48;6.60;99.90
28244;DHT22;15510;52.512;13.300;2023-04-19T05:55:14;6.60;99.90
28244;DHT22;15510;52.512;13.300;2023-04-19T05:58:03;6.60;99.90
28244;DHT22;15510;52.512;13.300;2023-04-19T06:00:29;6.70;99.90
28244;DHT22;15510;52.512;13.300;2023-04-19T06:03:06;6.80;99.90
28244;DHT22;15510;52.512;13.300;2023-04-19T06:05:32;6.80;99.90
28244;DHT22;15510;52.512;13.300;2023-04-19T06:08:01;6.90;99.90
28244;DHT22;15510;52.512;13.300;2023-04-19T06:10:26;7.00;99.90
28244;DHT22;15510;52.512;13.300;2023-04-19T06:12:52;7.00;99.90
28244;DHT22;15510;52.512;13.300;2023-04-19T06:15:18;7.10;99.90
28244;DHT22;15510;52.512;13.300;2023-04-19T06:17:45;7.10;99.90
28244;DHT22;15510;52.512;13.300;2023-04-19T06:20:11;7.10;99.90
28244;DHT22;15510;52.512;13.300;2023-04-19T06:22:47;7.10;99.90
28244;DHT22;15510;52.512;13.300;2023-04-19T06:25:16;7.20;99.90
28244;DHT22;15510;52.512;13.300;2023-04-19T06:27:42;7.30;99.90
28244;DHT22;15510;52.512;13.300;2023-04-19T06:30:08;7.40;99.90
28244;DHT22;15510;52.512;13.300;2023-04-19T06:32:33;7.50;99.90
28244;DHT22;15510;52.512;13.300;2023-04-19T06:35:00;7.50;99.90
28244;DHT22;15510;52.512;13.300;2023-04-19T06:37:29;7.60;99.90
28244;DHT22;15510;52.512;13.300;2023-04-19T06:40:01;7.70;99.90
28244;DHT22;15510;52.512;13.300;2023-04-19T06:42:35;7.70;99.90
28244;DHT22;15510;52.512;13.300;2023-04-19T06:45:16;7.80;99.90
28244;DHT22;15510;52.512;13.300;2023-04-19T06:47:41;7.90;99.90
28244;DHT22;15510;52.512;13.300;2023-04-19T06:50:10;8.00;99.90
28244;DHT22;15510;52.512;13.300;2023-04-19T06:52:36;8.10;99.90
28244;DHT22;15510;52.512;13.300;2023-04-19T06:55:03;8.30;99.90
28244;DHT22;15510;52.512;13.300;2023-04-19T06:57:31;8.60;99.90
28244;DHT22;15510;52.512;13.300;2023-04-19T06:59:59;8.80;99.90
28244;DHT22;15510;52.512;13.300;2023-04-19T07:02:26;8.80;99.90
28244;DHT22;15510;52.512;13.300;2023-04-19T07:04:54;8.70;99.90
28244;DHT22;15510;52.512;13.300;2023-04-19T07:07:20;8.90;99.90
28244;DHT22;15510;52.512;13.300;2023-04-19T07:09:46;9.00;99.90
28244;DHT22;15510;52.512;13.300;2023-04-19T07:12:12;9.00;99.90
28244;DHT22;15510;52.512;13.300;2023-04-19T07:14:40;9.00;99.90
28244;DHT22;15510;52.512;13.300;2023-04-19T07:17:09;9.10;99.90
28244;DHT22;15510;52.512;13.300;2023-04-19T07:19:35;9.10;99.90
28244;DHT22;15510;52.512;13.300;2023-04-19T07:22:00;9.20;99.90
28244;DHT22;15510;52.512;13.300;2023-04-19T07:24:27;9.30;99.90
28244;DHT22;15510;52.512;13.300;2023-04-19T07:26:56;9.70;99.90
28244;DHT22;15510;52.512;13.300;2023-04-19T07:29:22;10.20;99.90
28244;DHT22;15510;52.512;13.300;2023-04-19T07:31:48;10.30;99.90
28244;DHT22;15510;52.512;13.300;2023-04-19T07:34:14;10.30;99.90
28244;DHT22;15510;52.512;13.300;2023-04-19T07:36:39;10.30;99.90
28244;DHT22;15510;52.512;13.300;2023-04-19T07:39:05;10.20;99.90
28244;DHT22;15510;52.512;13.300;2023-04-19T07:41:34;10.20;99.90
28244;DHT22;15510;52.512;13.300;2023-04-19T07:44:00;10.20;99.90
28244;DHT22;15510;52.512;13.300;2023-04-19T07:46:30;10.10;99.90
28244;DHT22;15510;52.512;13.300;2023-04-19T07:48:56;10.20;99.90
28244;DHT22;15510;52.512;13.300;2023-04-19T07:51:21;10.20;99.90
28244;DHT22;15510;52.512;13.300;2023-04-19T07:53:49;10.40;99.90
28244;DHT22;15510;52.512;13.300;2023-04-19T07:56:15;10.50;99.90
28244;DHT22;15510;52.512;13.300;2023-04-19T07:58:40;10.60;99.90
28244;DHT22;15510;52.512;13.300;2023-04-19T08:01:06;10.70;99.90
28244;DHT22;15510;52.512;13.300;2023-04-19T08:03:33;10.80;99.90
28244;DHT22;15510;52.512;13.300;2023-04-19T08:06:05;10.90;99.90
28244;DHT22;15510;52.512;13.300;2023-04-19T08:08:35;10.90;99.90
28244;DHT22;15510;52.512;13.300;2023-04-19T08:11:02;11.00;99.90
28244;DHT22;15510;52.512;13.300;2023-04-19T08:13:28;11.10;99.90
28244;DHT22;15510;52.512;13.300;2023-04-19T08:15:54;11.10;99.90
28244;DHT22;15510;52.512;13.300;2023-04-19T08:18:20;11.10;99.90
28244;DHT22;15510;52.512;13.300;2023-04-19T08:20:46;11.10;99.90
28244;DHT22;15510;52.512;13.300;2023-04-19T08:23:13;11.10;99.90
28244;DHT22;15510;52.512;13.300;2023-04-19T08:25:38;11.10;99.90
28244;DHT22;15510;52.512;13.300;2023-04-19T08:28:04;11.10;99.90
28244;DHT22;15510;52.512;13.300;2023-04-19T08:30:31;11.20;99.90
28244;DHT22;15510;52.512;13.300;2023-04-19T08:32:57;11.40;99.90
28244;DHT22;15510;52.512;13.300;2023-04-19T08:35:23;11.40;99.90
28244;DHT22;15510;52.512;13.300;2023-04-19T08:37:50;11.40;99.90
28244;DHT22;15510;52.512;13.300;2023-04-19T08:40:16;11.40;99.90
28244;DHT22;15510;52.512;13.300;2023-04-19T08:42:42;11.40;99.90
28244;DHT22;15510;52.512;13.300;2023-04-19T08:45:08;11.50;99.90
28244;DHT22;15510;52.512;13.300;2023-04-19T08:47:36;11.70;99.90
28244;DHT22;15510;52.512;13.300;2023-04-19T08:50:06;11.90;99.90
28244;DHT22;15510;52.512;13.300;2023-04-19T08:52:34;11.70;99.90
28244;DHT22;15510;52.512;13.300;2023-04-19T08:55:05;11.50;99.90
28244;DHT22;15510;52.512;13.300;2023-04-19T08:57:31;11.50;99.90
28244;DHT22;15510;52.512;13.300;2023-04-19T08:59:59;11.50;99.90
28244;DHT22;15510;52.512;13.300;2023-04-19T09:02:25;11.60;99.90
28244;DHT22;15510;52.512;13.300;2023-04-19T09:04:51;11.80;99.90
28244;DHT22;15510;52.512;13.300;2023-04-19T09:07:26;11.90;99.90
28244;DHT22;15510;52.512;13.300;2023-04-19T09:10:09;12.20;99.90
28244;DHT22;15510;52.512;13.300;2023-04-19T09:12:36;12.40;99.90
28244;DHT22;15510;52.512;13.300;2023-04-19T09:15:04;12.60;99.90
28244;DHT22;15510;52.512;13.300;2023-04-19T09:17:31;12.70;99.90
28244;DHT22;15510;52.512;13.300;2023-04-19T09:19:57;12.70;99.90
28244;DHT22;15510;52.512;13.300;2023-04-19T09:22:26;12.60;99.90
28244;DHT22;15510;52.512;13.300;2023-04-19T09:24:52;12.70;99.90
28244;DHT22;15510;52.512;13.300;2023-04-19T09:30:03;12.80;99.90
28244;DHT22;15510;52.512;13.300;2023-04-19T09:32:46;12.50;99.90
28244;DHT22;15510;52.512;13.300;2023-04-19T09:35:14;12.70;99.90
28244;DHT22;15510;52.512;13.300;2023-04-19T09:37:56;12.90;99.90
28244;DHT22;15510;52.512;13.300;2023-04-19T09:40:25;13.10;99.90
28244;DHT22;15510;52.512;13.300;2023-04-19T09:42:52;13.10;98.80
28244;DHT22;15510;52.512;13.300;2023-04-19T09:45:18;13.20;99.30
28244;DHT22;15510;52.512;13.300;2023-04-19T09:47:44;13.10;98.30
28244;DHT22;15510;52.512;13.300;2023-04-19T09:50:11;13.10;98.90
28244;DHT22;15510;52.512;13.300;2023-04-19T09:52:37;13.20;98.80
28244;DHT22;15510;52.512;13.300;2023-04-19T09:55:04;13.10;98.80
28244;DHT22;15510;52.512;13.300;2023-04-19T09:57:33;13.10;98.00
28244;DHT22;15510;52.512;13.300;2023-04-19T10:00:00;13.10;98.30
28244;DHT22;15510;52.512;13.300;2023-04-19T10:02:35;13.20;97.90
28244;DHT22;15510;52.512;13.300;2023-04-19T10:05:02;13.40;98.20
28244;DHT22;15510;52.512;13.300;2023-04-19T10:07:31;13.50;97.90
28244;DHT22;15510;52.512;13.300;2023-04-19T10:09:58;13.40;96.70
28244;DHT22;15510;52.512;13.300;2023-04-19T10:12:25;13.40;96.70
28244;DHT22;15510;52.512;13.300;2023-04-19T10:14:54;13.40;99.20
28244;DHT22;15510;52.512;13.300;2023-04-19T10:17:23;13.30;96.70
28244;DHT22;15510;52.512;13.300;2023-04-19T10:20:10;13.20;97.50
28244;DHT22;15510;52.512;13.300;2023-04-19T10:22:37;13.20;96.90
28244;DHT22;15510;52.512;13.300;2023-04-19T10:25:14;13.40;97.60
28244;DHT22;15510;52.512;13.300;2023-04-19T10:27:41;13.30;97.20
28244;DHT22;15510;52.512;13.300;2023-04-19T10:30:18;13.40;96.40
28244;DHT22;15510;52.512;13.300;2023-04-19T10:32:55;13.50;96.20
28244;DHT22;15510;52.512;13.300;2023-04-19T10:35:24;13.60;96.40
28244;DHT22;15510;52.512;13.300;2023-04-19T10:38:13;13.60;96.00
28244;DHT22;15510;52.512;13.300;2023-04-19T10:40:59;13.70;96.50
28244;DHT22;15510;52.512;13.300;2023-04-19T10:43:27;13.80;96.20
28244;DHT22;15510;52.512;13.300;2023-04-19T10:45:58;13.80;95.20
28244;DHT22;15510;52.512;13.300;2023-04-19T10:51:15;14.00;95.50
28244;DHT22;15510;52.512;13.300;2023-04-19T10:53:57;14.10;94.70
28244;DHT22;15510;52.512;13.300;2023-04-19T11:01:38;14.40;94.20
28244;DHT22;15510;52.512;13.300;2023-04-19T11:04:05;14.70;93.00
28244;DHT22;15510;52.512;13.300;2023-04-19T11:06:32;14.80;92.90
28244;DHT22;15510;52.512;13.300;2023-04-19T11:08:59;15.30;91.60
28244;DHT22;15510;52.512;13.300;2023-04-19T11:11:25;16.00;89.80
28244;DHT22;15510;52.512;13.300;2023-04-19T11:13:54;16.80;88.50
28244;DHT22;15510;52.512;13.300;2023-04-19T11:16:20;17.50;82.00
28244;DHT22;15510;52.512;13.300;2023-04-19T11:18:46;17.80;79.90
28244;DHT22;15510;52.512;13.300;2023-04-19T11:21:13;17.40;77.20
28244;DHT22;15510;52.512;13.300;2023-04-19T11:23:41;16.50;82.20
28244;DHT22;15510;52.512;13.300;2023-04-19T11:26:10;16.00;84.30
28244;DHT22;15510;52.512;13.300;2023-04-19T11:28:37;15.60;85.90
28244;DHT22;15510;52.512;13.300;2023-04-19T11:31:04;15.90;84.60
28244;DHT22;15510;52.512;13.300;2023-04-19T11:33:34;16.00;83.60
28244;DHT22;15510;52.512;13.300;2023-04-19T11:36:00;16.10;84.30
28244;DHT22;15510;52.512;13.300;2023-04-19T11:38:29;16.30;84.30
28244;DHT22;15510;52.512;13.300;2023-04-19T11:41:02;16.30;82.90
28244;DHT22;15510;52.512;13.300;2023-04-19T11:43:35;15.90;85.80
28244;DHT22;15510;52.512;13.300;2023-04-19T11:46:09;15.70;85.30
28244;DHT22;15510;52.512;13.300;2023-04-19T11:48:36;15.90;85.90
28244;DHT22;15510;52.512;13.300;2023-04-19T11:51:02;16.20;84.70
28244;DHT22;15510;52.512;13.300;2023-04-19T11:53:32;16.00;84.20
28244;DHT22;15510;52.512;13.300;2023-04-19T11:56:05;15.30;85.00
28244;DHT22;15510;52.512;13.300;2023-04-19T11:58:39;15.10;86.50
28244;DHT22;15510;52.512;13.300;2023-04-19T12:01:08;14.90;86.50
28244;DHT22;15510;52.512;13.300;2023-04-19T12:03:39;14.70;87.50
28244;DHT22;15510;52.512;13.300;2023-04-19T12:06:05;14.70;88.70
28244;DHT22;15510;52.512;13.300;2023-04-19T12:08:46;14.70;87.70
28244;DHT22;15510;52.512;13.300;2023-04-19T12:11:14;14.60;87.70
28244;DHT22;15510;52.512;13.300;2023-04-19T12:13:40;14.60;86.60
28244;DHT22;15510;52.512;13.300;2023-04-19T12:16:07;14.70;87.30
28244;DHT22;15510;52.512;13.300;2023-04-19T12:18:46;15.10;89.10
28244;DHT22;15510;52.512;13.300;2023-04-19T12:21:28;15.50;86.10
28244;DHT22;15510;52.512;13.300;2023-04-19T12:23:58;15.50;85.20
28244;DHT22;15510;52.512;13.300;2023-04-19T12:26:27;15.30;86.30
28244;DHT22;15510;52.512;13.300;2023-04-19T12:28:57;15.30;85.70
28244;DHT22;15510;52.512;13.300;2023-04-19T12:31:23;15.30;86.30
28244;DHT22;15510;52.512;13.300;2023-04-19T12:33:49;15.40;87.60
28244;DHT22;15510;52.512;13.300;2023-04-19T12:36:15;15.50;87.40
28244;DHT22;15510;52.512;13.300;2023-04-19T12:38:41;15.30;84.50
28244;DHT22;15510;52.512;13.300;2023-04-19T12:41:07;15.30;85.20
28244;DHT22;15510;52.512;13.300;2023-04-19T12:43:33;15.40;84.70
28244;DHT22;15510;52.512;13.300;2023-04-19T12:45:59;15.40;84.20
28244;DHT22;15510;52.512;13.300;2023-04-19T12:48:26;15.10;86.60
28244;DHT22;15510;52.512;13.300;2023-04-19T12:50:52;14.90;87.20
28244;DHT22;15510;52.512;13.300;2023-04-19T12:53:18;14.80;89.10
28244;DHT22;15510;52.512;13.300;2023-04-19T12:55:44;14.90;89.90
28244;DHT22;15510;52.512;13.300;2023-04-19T12:58:17;15.00;89.20
28244;DHT22;15510;52.512;13.300;2023-04-19T13:00:43;15.50;84.80
28244;DHT22;15510;52.512;13.300;2023-04-19T13:03:09;16.10;84.10
28244;DHT22;15510;52.512;13.300;2023-04-19T13:05:36;17.70;79.10
28244;DHT22;15510;52.512;13.300;2023-04-19T13:08:02;18.70;71.70
28244;DHT22;15510;52.512;13.300;2023-04-19T13:10:28;19.50;68.90
28244;DHT22;15510;52.512;13.300;2023-04-19T13:12:54;20.50;65.60
28244;DHT22;15510;52.512;13.300;2023-04-19T13:15:20;21.50;60.40
28244;DHT22;15510;52.512;13.300;2023-04-19T13:17:46;22.20;55.00
28244;DHT22;15510;52.512;13.300;2023-04-19T13:20:12;21.80;53.60
28244;DHT22;15510;52.512;13.300;2023-04-19T13:22:38;21.60;53.50
28244;DHT22;15510;52.512;13.300;2023-04-19T13:25:04;21.60;52.00
28244;DHT22;15510;52.512;13.300;2023-04-19T13:27:30;21.40;51.20
28244;DHT22;15510;52.512;13.300;2023-04-19T13:29:56;20.90;51.80
28244;DHT22;15510;52.512;13.300;2023-04-19T13:32:22;21.00;51.10
28244;DHT22;15510;52.512;13.300;2023-04-19T13:34:48;20.90;50.30
28244;DHT22;15510;52.512;13.300;2023-04-19T13:37:13;21.00;50.80
28244;DHT22;15510;52.512;13.300;2023-04-19T13:39:39;20.90;49.60
28244;DHT22;15510;52.512;13.300;2023-04-19T13:42:05;20.40;50.00
28244;DHT22;15510;52.512;13.300;2023-04-19T13:44:31;19.60;50.70
28244;DHT22;15510;52.512;13.300;2023-04-19T13:46:57;18.70;52.10
28244;DHT22;15510;52.512;13.300;2023-04-19T13:49:23;17.70;53.80
28244;DHT22;15510;52.512;13.300;2023-04-19T13:51:49;17.20;55.50
28244;DHT22;15510;52.512;13.300;2023-04-19T13:54:15;16.80;56.70
28244;DHT22;15510;52.512;13.300;2023-04-19T13:56:44;16.20;59.30
28244;DHT22;15510;52.512;13.300;2023-04-19T13:59:10;15.70;59.10
28244;DHT22;15510;52.512;13.300;2023-04-19T14:01:36;15.40;63.00
28244;DHT22;15510;52.512;13.300;2023-04-19T14:04:01;15.20;63.90
28244;DHT22;15510;52.512;13.300;2023-04-19T14:06:27;15.20;64.00
28244;DHT22;15510;52.512;13.300;2023-04-19T14:08:53;15.00;66.70
28244;DHT22;15510;52.512;13.300;2023-04-19T14:11:19;14.80;69.30
28244;DHT22;15510;52.512;13.300;2023-04-19T14:13:45;14.60;70.10
28244;DHT22;15510;52.512;13.300;2023-04-19T14:16:13;14.40;73.10
28244;DHT22;15510;52.512;13.300;2023-04-19T14:18:39;14.30;73.30
28244;DHT22;15510;52.512;13.300;2023-04-19T14:21:05;14.10;75.70
28244;DHT22;15510;52.512;13.300;2023-04-19T14:23:32;14.00;76.10
28244;DHT22;15510;52.512;13.300;2023-04-19T14:25:58;14.10;77.50
28244;DHT22;15510;52.512;13.300;2023-04-19T14:28:23;14.30;76.90
28244;DHT22;15510;52.512;13.300;2023-04-19T14:30:49;14.40;74.80
28244;DHT22;15510;52.512;13.300;2023-04-19T14:33:15;14.70;77.00
28244;DHT22;15510;52.512;13.300;2023-04-19T14:35:41;14.80;75.20
28244;DHT22;15510;52.512;13.300;2023-04-19T14:38:07;14.60;75.90
28244;DHT22;15510;52.512;13.300;2023-04-19T14:40:33;14.40;75.50
28244;DHT22;15510;52.512;13.300;2023-04-19T14:42:58;14.10;77.80
28244;DHT22;15510;52.512;13.300;2023-04-19T14:45:25;14.00;79.50
28244;DHT22;15510;52.512;13.300;2023-04-19T14:47:52;13.70;81.10
28244;DHT22;15510;52.512;13.300;2023-04-19T14:50:18;13.50;82.30
28244;DHT22;15510;52.512;13.300;2023-04-19T14:52:43;13.30;83.00
28244;DHT22;15510;52.512;13.300;2023-04-19T14:55:10;13.20;87.20
28244;DHT22;15510;52.512;13.300;2023-04-19T14:57:37;13.20;86.40
28244;DHT22;15510;52.512;13.300;2023-04-19T15:00:03;13.10;89.50
28244;DHT22;15510;52.512;13.300;2023-04-19T15:02:29;13.00;90.60
28244;DHT22;15510;52.512;13.300;2023-04-19T15:04:56;12.90;91.90
28244;DHT22;15510;52.512;13.300;2023-04-19T15:07:21;12.60;93.60
28244;DHT22;15510;52.512;13.300;2023-04-19T15:09:47;12.30;97.50
28244;DHT22;15510;52.512;13.300;2023-04-19T15:12:13;12.10;99.90
28244;DHT22;15510;52.512;13.300;2023-04-19T15:14:38;11.90;99.90
28244;DHT22;15510;52.512;13.300;2023-04-19T15:17:05;11.60;99.90
28244;DHT22;15510;52.512;13.300;2023-04-19T15:19:31;11.30;99.90
28244;DHT22;15510;52.512;13.300;2023-04-19T15:21:56;11.20;99.90
28244;DHT22;15510;52.512;13.300;2023-04-19T15:24:22;11.00;99.90
28244;DHT22;15510;52.512;13.300;2023-04-19T15:26:48;10.70;99.90
28244;DHT22;15510;52.512;13.300;2023-04-19T15:29:14;10.30;99.90
28244;DHT22;15510;52.512;13.300;2023-04-19T15:31:39;9.90;99.90
28244;DHT22;15510;52.512;13.300;2023-04-19T15:34:05;9.40;99.90
28244;DHT22;15510;52.512;13.300;2023-04-19T15:36:31;9.10;99.90
28244;DHT22;15510;52.512;13.300;2023-04-19T15:38:58;8.80;99.90